Latest Weather Observations for Grove

IDT60801

Issued at 7:02 pm EST Saturday 30 April 2016 (issued every 30 minutes, with the page automatically refreshed every 10 minutes)

About weather observations | Map of weather stations | Latest weather observations for TAS | Other Formats
Station Details ID: 094220 Name: GROVE (RESEARCH STATION) Lat: -42.99 Lon: 147.07 Height: 65.0 m
Data from the previous 72 hours. | See also: Recent months at Grove
Date/Time
EST
Temp
°C
App
Temp
°C
Dew
Point
Rel
Hum
%
Delta-T
°C
Wind Press
QNH
hPa
Press
MSL
hPa
Rain
since 9 am
mm
Dir
 
Spd
km/h
Gust
km/h
Spd
kts
Gust
kts
30/07:00pm 12.9 11.1 9.6 80 1.7 NNE 9 11 5 6 - - 0.0
30/06:30pm 14.5 14.0 9.2 70 2.7 WSW 2 9 1 5 - - 0.0
30/06:00pm 15.6 15.0 8.8 64 3.5 WSW 2 17 1 9 - - 0.0
30/05:30pm 17.8 16.1 7.5 51 5.2 SW 6 9 3 5 - - 0.0
30/05:00pm 19.2 17.9 7.7 47 5.9 NNW 4 11 2 6 - - 0.0
30/04:30pm 21.1 18.1 6.2 38 7.5 NW 11 22 6 12 - - 0.0
30/04:00pm 22.1 19.6 6.7 37 7.9 WNW 9 15 5 8 - - 0.0
30/03:30pm 20.8 19.8 8.7 45 6.4 N 4 9 2 5 - - 0.0
30/03:00pm 21.1 18.1 7.8 42 6.9 N 13 24 7 13 - - 0.0
30/02:30pm 21.6 18.3 8.0 41 7.1 NNE 15 24 8 13 - - 0.0
30/02:00pm 22.5 20.1 8.6 41 7.4 NNW 11 19 6 10 - - 0.0
30/01:30pm 21.8 19.1 7.3 39 7.5 N 11 26 6 14 - - 0.0
30/01:00pm 21.0 16.6 7.2 41 7.1 N 20 37 11 20 - - 0.0
30/12:30pm 20.9 18.0 8.1 43 6.7 N 13 24 7 13 - - 0.0
30/12:00pm 20.1 14.6 7.7 44 6.4 NW 26 37 14 20 - - 0.0
30/11:30am 19.3 15.6 7.8 47 5.9 N 17 30 9 16 - - 0.0
30/11:00am 19.0 14.9 7.7 48 5.8 NNW 19 35 10 19 - - 0.0
30/10:30am 18.1 15.3 6.9 48 5.6 NNW 11 19 6 10 - - 0.0
30/10:00am 17.2 13.1 7.7 53 4.8 N 19 37 10 20 - - 0.0
30/09:30am 16.7 13.3 7.6 55 4.6 N 15 39 8 21 - - 0.0
30/09:00am 16.5 12.8 7.8 56 4.4 N 17 26 9 14 - - 4.2
30/08:30am 14.8 11.7 8.7 67 3.1 NNE 15 24 8 13 - - 4.2
30/08:00am 10.7 8.8 8.9 89 0.9 NE 9 13 5 7 - - 4.0
30/07:30am 8.1 6.4 7.5 96 0.3 NNE 6 9 3 5 - - 4.0
30/07:00am 8.6 7.0 8.0 96 0.3 ENE 6 9 3 5 - - 4.0
30/06:30am 9.7 7.6 8.3 91 0.7 ENE 9 13 5 7 - - 4.0
30/06:00am 11.4 9.5 9.2 86 1.1 E 9 13 5 7 - - 4.0
30/05:30am 8.9 7.0 8.9 100 0.0 ENE 9 11 5 6 - - 4.0
30/05:00am 8.5 6.4 8.1 97 0.2 NE 9 13 5 7 - - 4.0
30/04:30am 8.3 6.7 8.1 99 0.1 NE 6 7 3 4 - - 4.0
30/04:00am 8.4 8.0 8.2 99 0.1 CALM 0 0 0 0 - - 4.0
30/03:30am 9.7 7.4 9.1 96 0.3 ENE 11 15 6 8 - - 4.0
30/03:00am 9.1 8.4 8.7 97 0.2 N 2 6 1 3 - - 4.0
30/02:30am 10.2 8.4 9.4 95 0.4 ENE 9 13 5 7 - - 4.0
30/02:00am 10.2 8.8 9.6 96 0.3 ENE 7 11 4 6 - - 4.0
30/01:30am 8.9 7.5 8.9 100 0.0 NE 6 11 3 6 - - 4.0
30/01:00am 9.9 9.7 9.1 95 0.4 CALM 0 0 0 0 - - 4.0
30/12:30am 10.8 10.1 10.0 95 0.4 NNW 4 7 2 4 - - 4.0
30/12:00am 11.2 10.0 10.4 95 0.4 N 7 11 4 6 - - 4.0
 
Date/Time
EST
Temp
°C
App
Temp
°C
Dew
Point
Rel
Hum
%
Delta-T
°C
Wind Press
QNH
hPa
Press
MSL
hPa
Rain
since 9 am
mm
Dir
 
Spd
km/h
Gust
km/h
Spd
kts
Gust
kts
29/11:30pm 10.6 8.7 10.4 99 0.1 ENE 11 13 6 7 - - 4.0
29/11:00pm 10.9 10.3 10.5 97 0.2 N 4 6 2 3 - - 4.0
29/10:30pm 11.8 11.4 11.0 95 0.4 WNW 4 7 2 4 - - 4.0
29/10:00pm 12.8 11.2 11.7 93 0.6 E 11 19 6 10 - - 4.0
29/09:30pm 12.5 11.7 11.6 94 0.5 NNE 7 9 4 5 - - 4.0
29/09:00pm 12.8 13.1 12.1 95 0.4 W 2 7 1 4 - - 4.0
29/08:30pm 13.9 13.5 12.4 91 0.8 W 6 11 3 6 - - 4.0
29/08:00pm 15.1 15.5 12.6 85 1.4 WSW 2 6 1 3 - - 4.0
29/07:30pm 16.3 15.2 11.9 75 2.4 NNE 9 17 5 9 - - 4.0
29/07:00pm 16.7 14.5 12.0 74 2.6 N 15 30 8 16 - - 4.0
29/06:30pm 16.5 14.4 12.3 76 2.3 NNW 15 30 8 16 - - 3.8
29/06:00pm 16.6 15.8 12.8 78 2.1 NNE 9 17 5 9 - - 3.8
29/05:30pm 16.6 14.8 13.2 80 1.9 N 15 28 8 15 - - 3.4
29/05:00pm 16.9 15.4 13.0 78 2.2 N 13 19 7 10 - - 3.0
29/04:30pm 16.7 16.1 13.5 81 1.8 N 9 17 5 9 - - 2.6
29/04:00pm 16.6 15.4 14.0 84 1.5 N 13 24 7 13 - - 2.0
29/03:30pm 16.7 17.3 15.2 91 0.9 NNE 6 9 3 5 - - 1.4
29/03:00pm 17.5 17.9 14.7 83 1.6 N 6 9 3 5 - - 0.4
29/02:30pm 19.3 18.4 12.5 64 3.8 N 9 17 5 9 - - 0.0
29/02:00pm 21.0 19.2 10.8 52 5.6 NNE 11 20 6 11 - - 0.0
29/01:30pm 20.8 20.1 11.4 55 5.2 N 6 11 3 6 - - 0.0
29/01:00pm 20.9 20.6 11.6 55 5.2 NE 4 7 2 4 - - 0.0
29/12:30pm 21.6 18.9 10.2 48 6.2 N 15 24 8 13 - - 0.0
29/12:00pm 22.2 19.0 10.1 46 6.6 WNW 17 28 9 15 - - 0.0
29/11:30am 22.1 20.3 10.7 48 6.3 NNW 11 22 6 12 - - 0.0
29/11:00am 21.8 21.0 11.8 53 5.6 N 7 13 4 7 - - 0.0
29/10:30am 17.1 16.6 12.6 75 2.5 SW 7 11 4 6 - - 0.0
29/10:00am 13.2 12.5 11.3 88 1.0 SW 6 9 3 5 - - 0.0
29/09:30am 11.6 10.5 10.6 94 0.5 W 7 13 4 7 - - 0.0
29/09:00am 10.5 9.3 9.7 95 0.4 E 6 9 3 5 - - 1.2
29/08:30am 9.8 8.5 9.2 96 0.3 ENE 6 9 3 5 - - 1.2
29/08:00am 9.6 9.0 8.8 95 0.4 ESE 2 6 1 3 - - 1.0
29/07:30am 9.2 8.1 8.6 96 0.3 N 4 7 2 4 - - 1.0
29/07:00am 9.0 8.7 8.6 97 0.2 CALM 0 6 0 3 - - 1.0
29/06:30am 9.0 8.6 8.4 96 0.3 CALM 0 4 0 2 - - 1.0
29/06:00am 8.9 8.5 8.3 96 0.3 CALM 0 6 0 3 - - 1.0
29/05:30am 8.9 7.4 8.3 96 0.3 SW 6 9 3 5 - - 1.0
29/05:00am 8.5 8.1 8.1 97 0.2 CALM 0 0 0 0 - - 1.0
29/04:30am 8.3 6.5 7.9 97 0.2 SW 7 9 4 5 - - 1.0
29/04:00am 8.3 7.8 7.9 97 0.2 CALM 0 0 0 0 - - 1.0
29/03:30am 7.9 6.6 7.5 97 0.2 NE 4 6 2 3 - - 1.0
29/03:00am 7.6 7.0 7.2 97 0.2 CALM 0 0 0 0 - - 1.0
29/02:30am 7.4 6.7 7.0 97 0.2 CALM 0 0 0 0 - - 1.0
29/02:00am 7.3 5.5 7.1 99 0.1 E 6 7 3 4 - - 1.0
29/01:30am 7.5 6.1 7.1 97 0.2 NNE 4 9 2 5 - - 1.0
29/01:00am 7.7 6.7 7.3 97 0.2 E 2 6 1 3 - - 1.0
29/12:30am 7.6 6.9 7.0 96 0.3 CALM 0 0 0 0 - - 1.0
29/12:00am 8.7 8.2 7.9 95 0.4 CALM 0 0 0 0 - - 1.0
 
Date/Time
EST
Temp
°C
App
Temp
°C
Dew
Point
Rel
Hum
%
Delta-T
°C
Wind Press
QNH
hPa
Press
MSL
hPa
Rain
since 9 am
mm
Dir
 
Spd
km/h
Gust
km/h
Spd
kts
Gust
kts
28/11:30pm 9.0 8.5 8.0 93 0.5 CALM 0 0 0 0 - - 1.0
28/11:00pm 8.9 8.5 8.1 95 0.4 CALM 0 0 0 0 - - 1.0
28/10:30pm 8.6 7.8 8.2 97 0.2 NE 2 7 1 4 - - 1.0
28/10:00pm 7.6 7.0 7.2 97 0.2 CALM 0 0 0 0 - - 1.0
28/09:30pm 6.9 5.3 6.5 97 0.2 NE 4 7 2 4 - - 1.0
28/09:00pm 7.3 6.5 6.4 94 0.4 CALM 0 0 0 0 - - 1.0
28/08:30pm 8.1 7.4 7.0 93 0.5 CALM 0 0 0 0 - - 1.0
28/08:00pm 8.7 7.4 7.6 93 0.5 N 4 9 2 5 - - 1.0
28/07:30pm 8.9 7.0 7.4 90 0.7 N 7 9 4 5 - - 1.0
28/07:00pm 9.7 7.9 8.0 89 0.8 NE 7 9 4 5 - - 1.0
28/06:30pm 10.9 9.9 8.7 86 1.1 NNW 4 9 2 5 - - 1.0
28/06:00pm 12.4 11.2 8.2 75 2.1 NW 4 7 2 4 - - 1.0
28/05:30pm 13.1 10.9 7.8 70 2.6 N 9 13 5 7 - - 1.0
28/05:00pm 14.7 13.1 7.9 63 3.4 WNW 6 11 3 6 - - 1.0
28/04:30pm 18.1 16.2 7.7 50 5.3 SW 7 11 4 6 - - 1.0
28/04:00pm 18.8 16.3 6.4 44 6.2 SW 9 17 5 9 - - 1.0
28/03:30pm 18.6 16.1 6.6 45 6.0 SW 9 13 5 7 - - 1.0
28/03:00pm 18.9 15.5 5.7 42 6.5 W 13 20 7 11 - - 1.0
28/02:30pm 19.5 17.7 9.5 52 5.3 W 9 19 5 10 - - 1.0
28/02:00pm 18.3 17.9 12.4 68 3.3 NNE 6 11 3 6 - - 1.0
28/01:30pm 16.8 16.3 12.7 77 2.3 NNE 7 11 4 6 - - 1.0
28/01:00pm 16.4 17.2 12.4 77 2.2 CALM 0 7 0 4 - - 1.0
28/12:30pm 15.4 16.4 13.2 87 1.2 CALM 0 0 0 0 - - 1.0
28/12:00pm 14.7 15.0 13.4 92 0.7 NW 4 6 2 3 - - 1.0
28/11:30am 14.0 13.9 13.3 96 0.4 NNE 6 9 3 5 - - 1.0
28/11:00am 13.7 13.3 13.0 96 0.4 WSW 7 11 4 6 - - 0.8
28/10:30am 13.4 13.1 12.7 95 0.4 WSW 6 9 3 5 - - 0.4
28/10:00am 13.5 12.6 12.6 94 0.5 S 9 15 5 8 - - 0.0
28/09:30am 13.7 13.2 12.8 94 0.5 SSW 7 13 4 7 - - 0.0
28/09:00am 14.1 13.7 13.0 93 0.6 SSW 7 11 4 6 - - 0.2
28/08:30am 14.4 14.0 12.9 91 0.8 SW 7 13 4 7 - - 0.0
28/08:00am 15.0 14.7 12.8 87 1.2 WSW 6 9 3 5 - - 0.0
28/07:30am 15.0 13.7 12.4 84 1.4 SW 11 15 6 8 - - 0.0
28/07:00am 14.8 12.6 12.0 83 1.5 SW 15 24 8 13 - - 0.0
28/06:30am 13.6 12.9 9.9 78 1.9 SW 4 9 2 5 - - 0.0
28/06:00am 13.3 12.1 9.6 78 1.9 SW 6 9 3 5 - - 0.0
28/05:30am 13.8 12.4 8.9 72 2.5 W 6 9 3 5 - - 0.0
28/05:00am 13.7 11.8 9.0 73 2.4 SW 9 13 5 7 - - 0.0
28/04:30am 13.2 11.7 9.3 77 2.0 SW 7 11 4 6 - - 0.0
28/04:00am 15.1 14.2 9.1 67 3.1 W 4 15 2 8 - - 0.0
28/03:30am 14.8 13.8 8.9 68 3.0 WSW 4 7 2 4 - - 0.0
28/03:00am 14.4 13.4 8.9 69 2.8 W 4 13 2 7 - - 0.0
28/02:30am 17.6 15.6 8.5 55 4.7 NNE 9 17 5 9 - - 0.0
28/02:00am 19.0 16.5 8.2 49 5.6 NNE 11 17 6 9 - - 0.0
28/01:30am 19.7 17.4 7.6 45 6.2 N 9 19 5 10 - - 0.0
28/01:00am 20.1 17.9 7.7 44 6.4 N 9 15 5 8 - - 0.0
28/12:30am 19.9 17.3 7.9 46 6.2 NNE 11 15 6 8 - - 0.0
28/12:00am 19.7 16.8 8.1 47 6.0 NNE 13 22 7 12 - - 0.0
 
Date/Time
EST
Temp
°C
App
Temp
°C
Dew
Point
Rel
Hum
%
Delta-T
°C
Wind Press
QNH
hPa
Press
MSL
hPa
Rain
since 9 am
mm
Dir
 
Spd
km/h
Gust
km/h
Spd
kts
Gust
kts
27/11:30pm 19.3 16.4 8.1 48 5.8 NE 13 19 7 10 - - 0.0
27/11:00pm 19.3 16.8 8.1 48 5.8 NE 11 17 6 9 - - 0.0
27/10:30pm 19.6 16.2 7.7 46 6.1 N 15 28 8 15 - - 0.0
27/10:00pm 20.2 17.1 7.3 43 6.6 N 13 22 7 12 - - 0.0
27/09:30pm 20.1 16.2 6.9 42 6.7 N 17 24 9 13 - - 0.0
27/09:00pm 20.5 16.8 6.4 40 7.1 N 15 28 8 15 - - 0.0
27/08:30pm 20.5 17.3 6.7 40 7.0 N 13 22 7 12 - - 0.0
27/08:00pm 20.6 17.7 6.6 40 7.1 NE 11 20 6 11 - - 0.0
27/07:30pm 20.4 17.5 6.3 40 7.1 ENE 11 20 6 11 - - 0.0

Other Formats:

Comma delimited format used in spreadsheet applications
http://www.bom.gov.au/fwo/IDT60801/IDT60801.95977.axf

JavaScript Object Notation format (JSON) in row-major order
http://www.bom.gov.au/fwo/IDT60801/IDT60801.95977.json